createdAt,value
2022-12-29T00:01:43.718Z,27.32
2022-12-29T00:06:45.100Z,27.25
2022-12-29T00:11:46.483Z,27.28
2022-12-29T00:16:47.863Z,27.20
2022-12-29T00:22:07.746Z,27.24
2022-12-29T00:27:30.374Z,27.39
2022-12-29T00:32:50.128Z,27.49
2022-12-29T00:38:09.722Z,27.51
2022-12-29T00:43:29.690Z,27.51
2022-12-29T00:48:49.366Z,27.33
2022-12-29T00:53:50.778Z,27.58
2022-12-29T00:58:52.229Z,27.93
2022-12-29T01:03:55.442Z,28.28
2022-12-29T01:09:18.542Z,28.47
2022-12-29T01:14:20.082Z,28.72
2022-12-29T01:19:21.569Z,28.95
2022-12-29T01:24:22.986Z,29.23
2022-12-29T01:29:24.453Z,29.47
2022-12-29T01:34:25.857Z,29.31
2022-12-29T01:39:27.252Z,29.44
2022-12-29T01:45:02.824Z,29.42
2022-12-29T01:50:11.572Z,29.51
2022-12-29T01:55:13.010Z,29.69
2022-12-29T02:00:15.486Z,29.77
2022-12-29T02:05:29.703Z,29.76
2022-12-29T02:10:32.332Z,29.71
2022-12-29T02:16:00.421Z,29.74
2022-12-29T02:21:37.645Z,29.84
2022-12-29T02:27:09.902Z,30.19
2022-12-29T02:32:26.811Z,30.22
2022-12-29T02:38:10.193Z,29.98
2022-12-29T02:43:49.016Z,30.01
2022-12-29T02:49:22.567Z,30.03
2022-12-29T02:54:41.987Z,29.88
2022-12-29T02:59:43.933Z,30.06
2022-12-29T03:05:07.921Z,30.14
2022-12-29T03:10:27.391Z,29.97
2022-12-29T03:16:06.701Z,29.98
2022-12-29T03:21:16.757Z,29.77
2022-12-29T03:26:19.666Z,29.80
2022-12-29T03:31:21.265Z,29.90
2022-12-29T03:36:27.901Z,29.82
2022-12-29T03:41:31.128Z,29.79
2022-12-29T03:46:32.556Z,29.90
2022-12-29T03:51:33.969Z,29.87
2022-12-29T03:56:35.681Z,30.02
2022-12-29T04:01:37.232Z,29.96
2022-12-29T04:06:38.717Z,30.00
2022-12-29T04:11:40.106Z,30.11
2022-12-29T04:16:41.604Z,30.07
2022-12-29T04:21:43.006Z,29.99
2022-12-29T04:26:44.389Z,30.12
2022-12-29T04:31:45.957Z,30.30
2022-12-29T04:36:47.845Z,30.56
2022-12-29T04:41:50.047Z,30.46
2022-12-29T04:46:51.464Z,30.26
2022-12-29T04:51:52.919Z,30.38
2022-12-29T04:56:54.312Z,30.41
2022-12-29T05:01:55.823Z,30.65
2022-12-29T05:06:57.284Z,30.73
2022-12-29T05:11:58.650Z,30.84
2022-12-29T05:17:00.041Z,31.01
2022-12-29T05:22:01.470Z,30.93
2022-12-29T05:27:02.865Z,31.02
2022-12-29T05:32:04.433Z,30.92
2022-12-29T05:37:05.828Z,31.08
2022-12-29T05:42:08.053Z,31.07
2022-12-29T05:47:09.537Z,31.19
2022-12-29T05:52:10.994Z,30.97
2022-12-29T05:57:12.415Z,30.95
2022-12-29T06:02:13.935Z,31.09
2022-12-29T06:07:15.589Z,31.00
2022-12-29T06:12:17.146Z,31.03
2022-12-29T06:17:18.650Z,31.08
2022-12-29T06:22:20.026Z,31.01
2022-12-29T06:27:21.442Z,30.94
2022-12-29T06:32:23.105Z,30.91
2022-12-29T06:37:24.479Z,31.15
2022-12-29T06:42:25.883Z,30.98
2022-12-29T06:47:27.268Z,31.14
2022-12-29T06:52:29.378Z,30.83
2022-12-29T06:57:30.777Z,30.69
2022-12-29T07:02:32.214Z,30.78
2022-12-29T07:07:33.709Z,30.67
2022-12-29T07:12:35.172Z,30.66
2022-12-29T07:17:36.542Z,30.63
2022-12-29T07:22:37.942Z,30.71
2022-12-29T07:27:39.358Z,30.56
2022-12-29T07:32:40.752Z,30.44
2022-12-29T07:37:42.147Z,30.79
2022-12-29T07:42:43.556Z,30.70
2022-12-29T07:47:48.861Z,30.80
2022-12-29T07:52:50.258Z,30.91
2022-12-29T07:57:54.052Z,30.85
2022-12-29T08:02:55.482Z,30.93
2022-12-29T08:07:57.705Z,30.55
2022-12-29T08:12:59.102Z,30.74
2022-12-29T08:18:00.495Z,30.72
2022-12-29T08:23:01.913Z,30.82
2022-12-29T08:28:03.330Z,30.68
2022-12-29T08:33:04.708Z,30.49
2022-12-29T08:38:06.086Z,30.23
2022-12-29T08:43:08.761Z,30.21
2022-12-29T08:48:10.238Z,30.17
2022-12-29T08:53:11.606Z,30.21
2022-12-29T08:58:15.629Z,30.13
2022-12-29T09:03:25.879Z,30.24
2022-12-29T09:08:38.494Z,30.05
2022-12-29T09:13:39.880Z,30.24
2022-12-29T09:18:41.291Z,29.99
2022-12-29T09:23:42.682Z,30.03
2022-12-29T09:28:45.197Z,29.94
2022-12-29T09:33:47.502Z,30.14
2022-12-29T09:38:48.895Z,29.94
2022-12-29T09:44:14.195Z,30.08
2022-12-29T09:49:41.961Z,30.14
2022-12-29T09:54:55.012Z,29.95
2022-12-29T10:00:07.201Z,29.91
2022-12-29T10:05:19.768Z,29.88
2022-12-29T10:10:41.669Z,29.97
2022-12-29T10:15:47.088Z,29.80
2022-12-29T10:21:14.584Z,29.67
2022-12-29T10:26:20.995Z,29.61
2022-12-29T10:31:35.685Z,29.59
2022-12-29T10:36:40.928Z,29.63
2022-12-29T10:41:52.146Z,29.80
2022-12-29T10:46:56.812Z,29.69
2022-12-29T10:51:59.536Z,29.76
2022-12-29T10:57:03.067Z,29.83
2022-12-29T11:02:10.541Z,29.82
2022-12-29T11:07:16.069Z,29.79
2022-12-29T11:12:23.493Z,29.92
2022-12-29T11:17:24.863Z,29.96
2022-12-29T11:22:28.648Z,29.88
2022-12-29T11:27:30.026Z,30.04
2022-12-29T11:32:31.427Z,30.24
2022-12-29T11:37:39.555Z,30.24
2022-12-29T11:42:42.726Z,30.41
2022-12-29T11:47:45.214Z,30.50
2022-12-29T11:52:46.599Z,30.47
2022-12-29T11:57:48.184Z,30.54
2022-12-29T12:03:16.458Z,30.54
2022-12-29T12:08:39.723Z,30.58
2022-12-29T12:14:04.027Z,30.58
2022-12-29T12:19:14.531Z,30.91
2022-12-29T12:24:34.577Z,30.76
2022-12-29T12:29:54.570Z,30.74
2022-12-29T12:34:55.961Z,30.66
2022-12-29T12:40:11.386Z,30.55
2022-12-29T12:45:35.884Z,30.34
2022-12-29T12:50:46.976Z,30.58
2022-12-29T12:56:16.835Z,30.43
2022-12-29T13:01:24.126Z,30.56
2022-12-29T13:06:41.329Z,30.68
2022-12-29T13:12:01.173Z,30.43
2022-12-29T13:17:09.899Z,30.46
2022-12-29T13:22:16.470Z,30.48
2022-12-29T13:27:37.675Z,30.39
2022-12-29T13:33:19.349Z,30.68
2022-12-29T13:38:39.221Z,30.52
2022-12-29T13:43:41.580Z,30.44
2022-12-29T13:48:47.343Z,30.41
2022-12-29T13:54:07.510Z,30.45
2022-12-29T13:59:41.728Z,30.47
2022-12-29T14:05:02.845Z,30.52
2022-12-29T14:10:04.457Z,30.48
2022-12-29T14:15:11.733Z,30.66
2022-12-29T14:20:21.708Z,30.52
2022-12-29T14:25:56.576Z,30.64
2022-12-29T14:30:59.572Z,30.59
2022-12-29T14:36:22.500Z,30.63
2022-12-29T14:41:27.923Z,30.50
2022-12-29T14:46:46.800Z,30.36
2022-12-29T14:51:48.566Z,30.67
2022-12-29T14:56:49.983Z,30.60
2022-12-29T15:01:55.849Z,30.88
2022-12-29T15:06:57.328Z,30.65
2022-12-29T15:12:02.283Z,30.55
2022-12-29T15:17:39.625Z,30.54
2022-12-29T15:22:49.703Z,30.61
2022-12-29T15:27:52.439Z,30.60
2022-12-29T15:32:53.880Z,30.87
2022-12-29T15:37:55.368Z,30.71
2022-12-29T15:43:06.601Z,30.86
2022-12-29T15:48:16.798Z,30.59
2022-12-29T15:53:32.000Z,30.52
2022-12-29T15:58:40.729Z,30.42
2022-12-29T16:03:42.320Z,30.52
2022-12-29T16:08:43.741Z,30.47
2022-12-29T16:13:45.580Z,30.71
2022-12-29T16:18:49.403Z,30.69
2022-12-29T16:23:55.871Z,30.51
2022-12-29T16:28:58.585Z,30.44
2022-12-29T16:33:59.992Z,30.50
2022-12-29T16:39:27.938Z,30.32
2022-12-29T16:44:30.718Z,30.53
2022-12-29T16:49:32.965Z,30.47
2022-12-29T16:54:36.306Z,30.38
2022-12-29T16:59:39.787Z,30.21
2022-12-29T17:04:41.177Z,30.47
2022-12-29T17:09:42.543Z,30.35
2022-12-29T17:14:52.645Z,30.51
2022-12-29T17:19:56.021Z,30.72
2022-12-29T17:24:58.519Z,30.87
2022-12-29T17:30:03.335Z,30.51
2022-12-29T17:35:04.924Z,30.62
2022-12-29T17:40:07.820Z,30.54
2022-12-29T17:45:14.020Z,30.63
2022-12-29T17:50:17.242Z,30.76
2022-12-29T17:55:19.653Z,30.89
2022-12-29T18:00:27.696Z,30.87
2022-12-29T18:05:29.931Z,30.64
2022-12-29T18:10:31.610Z,30.77
2022-12-29T18:15:34.751Z,30.94
2022-12-29T18:20:36.152Z,31.27
2022-12-29T18:25:47.691Z,31.30
2022-12-29T18:30:49.149Z,31.26
2022-12-29T18:35:58.110Z,31.12
2022-12-29T18:40:59.480Z,31.21
2022-12-29T18:46:00.890Z,31.13
2022-12-29T18:51:02.253Z,31.29
2022-12-29T18:56:03.837Z,31.36
2022-12-29T19:01:05.576Z,31.56
2022-12-29T19:06:06.967Z,31.46
2022-12-29T19:11:08.362Z,31.54
2022-12-29T19:16:15.941Z,31.21
2022-12-29T19:21:19.755Z,31.57
2022-12-29T19:26:32.211Z,31.50
2022-12-29T19:31:33.909Z,31.42
2022-12-29T19:36:35.388Z,31.54
2022-12-29T19:41:36.887Z,31.37
2022-12-29T19:46:38.311Z,31.30
2022-12-29T19:51:39.719Z,31.41
2022-12-29T19:56:42.854Z,31.27
2022-12-29T20:01:44.444Z,31.13
2022-12-29T20:06:45.974Z,31.02
2022-12-29T20:11:47.359Z,30.64
2022-12-29T20:17:09.661Z,30.50
2022-12-29T20:22:10.577Z,30.57
2022-12-29T20:27:12.161Z,30.50
2022-12-29T20:32:17.981Z,30.56
2022-12-29T20:37:19.355Z,30.27
2022-12-29T20:42:21.038Z,30.23
2022-12-29T20:47:22.412Z,30.15
2022-12-29T20:52:23.793Z,30.25
2022-12-29T20:57:25.172Z,30.24
2022-12-29T21:02:26.714Z,30.32
2022-12-29T21:07:28.458Z,30.07
2022-12-29T21:12:29.838Z,30.09
2022-12-29T21:17:31.262Z,30.13
2022-12-29T21:22:33.947Z,30.10
2022-12-29T21:27:35.354Z,30.20
2022-12-29T21:32:36.768Z,30.05
2022-12-29T21:37:38.183Z,30.08
2022-12-29T21:42:39.561Z,30.08
2022-12-29T21:48:00.911Z,30.16
2022-12-29T21:53:02.286Z,30.04
2022-12-29T21:58:21.818Z,30.32
2022-12-29T22:03:41.933Z,29.95
2022-12-29T22:09:01.607Z,29.89
2022-12-29T22:14:03.391Z,30.03
2022-12-29T22:19:04.806Z,29.98
2022-12-29T22:24:06.461Z,29.96
2022-12-29T22:29:07.863Z,29.95
2022-12-29T22:34:10.762Z,30.09
2022-12-29T22:39:12.165Z,29.81
2022-12-29T22:44:13.545Z,29.88
2022-12-29T22:49:14.950Z,29.81
2022-12-29T22:54:16.335Z,30.11
2022-12-29T22:59:17.708Z,30.01
2022-12-29T23:05:01.523Z,29.87
2022-12-29T23:09:40.604Z,29.69
2022-12-29T23:14:41.978Z,29.64
2022-12-29T23:19:43.362Z,29.80
2022-12-29T23:24:44.747Z,29.54
2022-12-29T23:29:46.133Z,29.76
2022-12-29T23:34:47.553Z,29.76
2022-12-29T23:39:48.950Z,29.47
2022-12-29T23:44:50.317Z,29.64
2022-12-29T23:49:51.696Z,29.54
2022-12-29T23:54:53.059Z,29.67
2022-12-29T23:59:54.453Z,29.49
